createdAt,value
2023-11-29T00:00:04.249Z,23.20
2023-11-29T00:03:17.619Z,24.10
2023-11-29T00:06:10.631Z,24.90
2023-11-29T00:08:57.656Z,19.80
2023-11-29T00:11:41.181Z,25.10
2023-11-29T00:14:22.567Z,26.20
2023-11-29T00:17:16.090Z,26.60
2023-11-29T00:20:12.895Z,26.80
2023-11-29T00:23:11.777Z,27.70
2023-11-29T00:26:04.401Z,28.80
2023-11-29T00:29:00.246Z,27.60
2023-11-29T00:34:26.249Z,28.20
2023-11-29T00:37:13.986Z,26.90
2023-11-29T00:40:07.867Z,26.50
2023-11-29T00:42:53.540Z,27.40
2023-11-29T00:45:47.591Z,24.70
2023-11-29T00:48:20.762Z,26.60
2023-11-29T00:51:03.763Z,25.70
2023-11-29T00:53:45.142Z,26.20
2023-11-29T00:56:37.708Z,23.00
2023-11-29T00:59:22.856Z,22.30
2023-11-29T01:01:57.846Z,22.40
2023-11-29T01:04:33.454Z,22.50
2023-11-29T01:07:18.888Z,19.80
2023-11-29T01:10:02.400Z,20.50
2023-11-29T01:12:37.398Z,20.00
2023-11-29T01:15:13.224Z,19.70
2023-11-29T01:17:48.399Z,19.80
2023-11-29T01:20:23.829Z,19.10
2023-11-29T01:22:59.544Z,19.20
2023-11-29T01:25:37.264Z,19.50
2023-11-29T01:28:15.364Z,18.00
2023-11-29T01:30:48.181Z,17.70
2023-11-29T01:33:23.608Z,17.60
2023-11-29T01:36:17.808Z,17.10
2023-11-29T01:38:53.241Z,18.20
2023-11-29T01:41:47.202Z,17.00
2023-11-29T01:44:42.019Z,15.30
2023-11-29T01:47:38.566Z,17.00
2023-11-29T01:50:26.427Z,17.00
2023-11-29T01:53:01.924Z,14.70
2023-11-29T01:55:56.002Z,15.80
2023-11-29T01:58:51.690Z,16.20
2023-11-29T02:01:34.549Z,15.50
2023-11-29T02:04:27.286Z,15.90
2023-11-29T02:07:11.358Z,15.00
2023-11-29T02:10:06.219Z,15.20
2023-11-29T02:13:00.921Z,15.30
2023-11-29T02:15:54.294Z,15.40
2023-11-29T02:18:46.835Z,15.80
2023-11-29T02:21:30.338Z,15.20
2023-11-29T02:24:29.444Z,15.20
2023-11-29T02:27:24.999Z,15.00
2023-11-29T02:30:17.880Z,14.90
2023-11-29T02:33:05.377Z,13.70
2023-11-29T02:35:57.989Z,15.50
2023-11-29T02:38:50.579Z,14.70
2023-11-29T02:41:43.240Z,15.50
2023-11-29T02:44:28.742Z,17.10
2023-11-29T02:47:21.734Z,16.40
2023-11-29T02:49:58.777Z,15.70
2023-11-29T02:52:48.328Z,17.10
2023-11-29T02:55:31.032Z,17.20
2023-11-29T02:58:23.649Z,15.50
2023-11-29T03:01:01.563Z,16.20
2023-11-29T03:03:55.574Z,17.20
2023-11-29T03:06:51.355Z,16.20
2023-11-29T03:09:46.278Z,16.00
2023-11-29T03:12:41.505Z,16.80
2023-11-29T03:15:24.396Z,16.40
2023-11-29T03:18:00.769Z,15.60
2023-11-29T03:20:53.480Z,15.80
2023-11-29T03:23:31.444Z,16.50
2023-11-29T03:26:14.783Z,17.40
2023-11-29T03:29:10.341Z,16.70
2023-11-29T03:32:05.327Z,15.70
2023-11-29T03:34:58.281Z,16.30
2023-11-29T03:38:01.964Z,16.30
2023-11-29T03:40:55.552Z,17.10
2023-11-29T03:43:42.867Z,17.20
2023-11-29T03:46:56.343Z,15.80
2023-11-29T03:49:41.784Z,17.80
2023-11-29T03:52:22.553Z,16.90
2023-11-29T03:55:11.029Z,16.00
2023-11-29T03:57:50.019Z,17.00
2023-11-29T04:00:33.761Z,16.30
2023-11-29T04:03:10.461Z,16.40
2023-11-29T04:05:56.050Z,17.10
2023-11-29T04:08:29.048Z,16.70
2023-11-29T04:11:21.810Z,15.70
2023-11-29T04:13:58.985Z,18.60
2023-11-29T04:16:42.785Z,17.30
2023-11-29T04:19:27.488Z,17.50
2023-11-29T04:22:20.269Z,17.00
2023-11-29T04:25:12.809Z,19.00
2023-11-29T04:28:11.765Z,19.30
2023-11-29T04:30:46.496Z,21.00
2023-11-29T04:33:21.931Z,21.10
2023-11-29T04:36:17.092Z,20.80
2023-11-29T04:39:10.952Z,18.50
2023-11-29T04:41:59.074Z,20.80
2023-11-29T04:47:33.509Z,20.20
2023-11-29T04:50:26.509Z,21.80
2023-11-29T04:53:19.478Z,21.70
2023-11-29T04:56:04.362Z,22.40
2023-11-29T04:58:57.064Z,21.50
2023-11-29T05:01:50.007Z,23.30
2023-11-29T05:04:35.850Z,21.70
2023-11-29T05:07:14.977Z,24.40
2023-11-29T05:09:53.733Z,21.30
2023-11-29T05:12:34.700Z,23.60
2023-11-29T05:15:25.866Z,28.70
2023-11-29T05:18:25.253Z,24.10
2023-11-29T05:21:18.682Z,24.40
2023-11-29T05:24:11.883Z,23.90
2023-11-29T05:27:04.488Z,24.10
2023-11-29T05:29:57.448Z,22.90
2023-11-29T05:32:50.415Z,24.80
2023-11-29T05:35:31.277Z,23.10
2023-11-29T05:38:24.799Z,23.70
2023-11-29T05:41:00.329Z,24.20
2023-11-29T05:43:55.266Z,23.70
2023-11-29T05:46:44.902Z,24.80
2023-11-29T05:49:38.566Z,25.70
2023-11-29T05:52:31.325Z,26.80
2023-11-29T05:55:24.714Z,24.90
2023-11-29T05:58:17.474Z,25.40
2023-11-29T06:01:08.770Z,28.80
2023-11-29T06:04:01.465Z,28.80
2023-11-29T06:06:58.179Z,27.70
2023-11-29T06:09:43.827Z,26.60
2023-11-29T06:12:27.834Z,27.40
2023-11-29T06:15:00.630Z,28.50
2023-11-29T06:17:33.478Z,27.50
2023-11-29T06:20:25.218Z,28.40
2023-11-29T06:23:14.756Z,32.40
2023-11-29T06:26:09.470Z,30.60
2023-11-29T06:28:52.669Z,29.90
2023-11-29T06:31:36.132Z,30.40
2023-11-29T06:34:11.968Z,31.90
2023-11-29T06:37:08.609Z,32.20
2023-11-29T06:39:57.322Z,32.60
2023-11-29T06:42:53.096Z,29.20
2023-11-29T06:45:30.940Z,35.00
2023-11-29T06:48:11.759Z,35.10
2023-11-29T06:50:47.815Z,32.20
2023-11-29T06:53:35.035Z,33.10
2023-11-29T06:56:28.805Z,32.60
2023-11-29T06:59:21.742Z,31.90
2023-11-29T07:01:58.684Z,33.10
2023-11-29T07:07:13.866Z,33.00
2023-11-29T07:10:09.436Z,33.00
2023-11-29T07:13:13.433Z,32.10
2023-11-29T07:16:11.567Z,30.80
2023-11-29T07:18:55.548Z,30.40
2023-11-29T07:21:40.733Z,31.40
2023-11-29T07:24:36.072Z,32.90
2023-11-29T07:27:30.598Z,32.30
2023-11-29T07:30:24.080Z,32.90
2023-11-29T07:33:17.084Z,42.50
2023-11-29T07:36:14.348Z,40.40
2023-11-29T07:39:08.149Z,38.50
2023-11-29T07:41:40.575Z,33.30
2023-11-29T07:44:13.197Z,35.10
2023-11-29T07:46:55.187Z,31.00
2023-11-29T07:49:27.734Z,30.10
2023-11-29T07:52:00.568Z,29.90
2023-11-29T07:54:44.576Z,31.50
2023-11-29T07:57:28.598Z,31.20
2023-11-29T08:00:14.927Z,30.80
2023-11-29T08:02:54.405Z,29.60
2023-11-29T08:05:29.370Z,27.60
2023-11-29T08:08:15.506Z,31.00
2023-11-29T08:10:49.367Z,27.00
2023-11-29T08:13:43.740Z,29.80
2023-11-29T08:16:16.617Z,25.50
2023-11-29T08:18:53.847Z,26.20
2023-11-29T08:21:35.392Z,26.40
2023-11-29T08:24:28.277Z,26.60
2023-11-29T08:27:00.954Z,29.10
2023-11-29T08:29:44.829Z,28.40
2023-11-29T08:32:28.858Z,26.00
2023-11-29T08:35:16.216Z,25.20
2023-11-29T08:37:54.384Z,24.50
2023-11-29T08:40:29.022Z,24.90
2023-11-29T08:43:19.333Z,27.40
2023-11-29T08:46:06.097Z,27.50
2023-11-29T08:48:40.690Z,27.20
2023-11-29T08:51:23.264Z,29.00
2023-11-29T08:54:00.034Z,27.30
2023-11-29T08:56:42.367Z,24.90
2023-11-29T08:59:15.034Z,26.10
2023-11-29T09:01:47.832Z,25.60
2023-11-29T09:04:20.461Z,25.90
2023-11-29T09:06:54.813Z,25.10
2023-11-29T09:09:27.163Z,25.50
2023-11-29T09:11:59.781Z,23.00
2023-11-29T09:14:44.555Z,24.00
2023-11-29T09:17:21.710Z,22.40
2023-11-29T09:19:58.942Z,23.50
2023-11-29T09:22:33.876Z,20.80
2023-11-29T09:25:09.615Z,22.50
2023-11-29T09:27:42.116Z,22.00
2023-11-29T09:30:16.212Z,23.30
2023-11-29T09:32:53.259Z,23.30
2023-11-29T09:35:27.413Z,21.10
2023-11-29T09:38:00.199Z,22.20
2023-11-29T09:40:32.783Z,23.10
2023-11-29T09:43:05.883Z,21.90
2023-11-29T09:45:40.726Z,21.50
2023-11-29T09:48:16.712Z,25.50
2023-11-29T09:50:50.139Z,22.40
2023-11-29T09:53:22.722Z,21.20
2023-11-29T09:55:56.192Z,19.90
2023-11-29T09:58:29.726Z,19.00
2023-11-29T10:01:03.778Z,18.20
2023-11-29T10:03:36.891Z,24.60
2023-11-29T10:06:10.638Z,19.90
2023-11-29T10:08:44.975Z,18.20
2023-11-29T10:11:22.592Z,19.60
2023-11-29T10:13:55.217Z,19.90
2023-11-29T10:16:31.422Z,19.30
2023-11-29T10:19:05.553Z,16.70
2023-11-29T10:21:41.404Z,15.90
2023-11-29T10:24:26.866Z,18.00
2023-11-29T10:27:02.091Z,17.20
2023-11-29T10:29:35.778Z,18.90
2023-11-29T10:32:12.462Z,18.20
2023-11-29T10:34:45.030Z,19.00
2023-11-29T10:37:20.284Z,17.10
2023-11-29T10:39:55.993Z,16.40
2023-11-29T10:42:28.516Z,16.50
2023-11-29T10:45:02.420Z,15.80
2023-11-29T10:47:41.199Z,14.90
2023-11-29T10:50:17.763Z,15.90
2023-11-29T10:52:50.547Z,16.20
2023-11-29T10:55:27.028Z,17.00
2023-11-29T10:58:05.131Z,15.50
2023-11-29T11:00:38.592Z,19.00
2023-11-29T11:03:44.299Z,18.60
2023-11-29T11:06:41.180Z,17.10
2023-11-29T11:09:38.738Z,19.40
2023-11-29T11:12:11.331Z,17.20
2023-11-29T11:14:52.639Z,18.70
2023-11-29T11:17:28.698Z,18.10
2023-11-29T11:20:09.380Z,19.50
2023-11-29T11:22:45.589Z,16.90
2023-11-29T11:25:19.145Z,17.80
2023-11-29T11:27:53.072Z,18.30
2023-11-29T11:30:29.983Z,18.10
2023-11-29T11:33:03.119Z,18.70
2023-11-29T11:35:38.146Z,17.40
2023-11-29T11:38:12.481Z,17.00
2023-11-29T11:40:45.333Z,17.20
2023-11-29T11:43:19.868Z,17.40
2023-11-29T11:45:52.543Z,17.30
2023-11-29T11:48:25.540Z,17.60
2023-11-29T11:50:58.584Z,17.70
2023-11-29T11:53:41.232Z,18.30
2023-11-29T11:56:21.473Z,19.40
2023-11-29T11:58:58.335Z,20.70
2023-11-29T12:01:31.976Z,20.20
2023-11-29T12:04:07.064Z,20.90
2023-11-29T12:06:39.877Z,21.80
2023-11-29T12:09:13.800Z,20.50
2023-11-29T12:11:46.962Z,22.60
2023-11-29T12:14:33.941Z,22.70
2023-11-29T12:17:07.516Z,21.50
2023-11-29T12:19:42.546Z,22.90
2023-11-29T12:22:20.785Z,20.40
2023-11-29T12:24:53.303Z,18.20
2023-11-29T12:27:48.743Z,18.30
2023-11-29T12:30:47.840Z,20.00
2023-11-29T12:33:27.320Z,19.00
2023-11-29T12:36:01.290Z,17.20
2023-11-29T12:38:40.579Z,20.20
2023-11-29T12:41:13.261Z,21.80
2023-11-29T12:43:46.229Z,20.50
2023-11-29T12:46:18.999Z,23.20
2023-11-29T12:48:52.681Z,23.30
2023-11-29T12:51:25.374Z,23.00
2023-11-29T12:54:09.229Z,24.30
2023-11-29T12:56:50.156Z,24.00
2023-11-29T12:59:26.587Z,23.10
2023-11-29T13:01:59.300Z,24.40
2023-11-29T13:04:32.225Z,24.30
2023-11-29T13:07:07.464Z,25.60
2023-11-29T13:09:41.297Z,26.50
2023-11-29T13:12:14.107Z,25.20
2023-11-29T13:14:46.702Z,25.20
2023-11-29T13:17:22.438Z,26.10
2023-11-29T13:19:55.084Z,25.20
2023-11-29T13:22:42.597Z,26.00
2023-11-29T13:25:15.406Z,27.50
2023-11-29T13:27:48.007Z,28.70
2023-11-29T13:30:21.275Z,29.00
2023-11-29T13:32:54.004Z,40.70
2023-11-29T13:35:29.663Z,34.80
2023-11-29T13:38:02.746Z,33.10
2023-11-29T13:40:35.789Z,35.90
2023-11-29T13:43:29.077Z,36.10
2023-11-29T13:46:05.657Z,37.60
2023-11-29T13:49:01.247Z,35.40
2023-11-29T13:51:49.286Z,36.50
2023-11-29T13:56:59.218Z,41.90
2023-11-29T13:59:52.577Z,42.90
2023-11-29T14:02:29.480Z,40.70
2023-11-29T14:05:02.384Z,41.10
2023-11-29T14:07:39.454Z,41.50
2023-11-29T14:10:20.434Z,43.00
2023-11-29T14:12:53.591Z,41.80
2023-11-29T14:15:26.006Z,46.70
2023-11-29T14:17:58.624Z,46.70
2023-11-29T14:20:33.601Z,49.70
2023-11-29T14:23:10.118Z,50.80
2023-11-29T14:25:42.582Z,53.90
2023-11-29T14:28:16.303Z,55.20
2023-11-29T14:30:49.448Z,56.10
2023-11-29T14:33:37.294Z,58.30
2023-11-29T14:36:13.435Z,57.10
2023-11-29T14:38:49.213Z,58.10
2023-11-29T14:41:28.721Z,59.20
2023-11-29T14:44:06.630Z,64.20
2023-11-29T14:46:39.126Z,69.50
2023-11-29T14:49:27.098Z,68.90
2023-11-29T14:52:12.815Z,74.90
2023-11-29T14:54:56.845Z,86.90
2023-11-29T14:57:51.126Z,87.60
2023-11-29T15:00:32.620Z,85.50
2023-11-29T15:03:26.105Z,79.50
2023-11-29T15:06:18.961Z,82.50
2023-11-29T15:09:11.783Z,87.80
2023-11-29T15:11:45.983Z,85.90
2023-11-29T15:14:41.904Z,85.00
2023-11-29T15:17:25.819Z,84.00
2023-11-29T15:20:19.549Z,75.10
2023-11-29T15:22:52.300Z,80.40
2023-11-29T15:25:27.975Z,79.80
2023-11-29T15:28:01.780Z,78.80
2023-11-29T15:30:34.192Z,75.90
2023-11-29T15:33:07.057Z,70.30
2023-11-29T15:35:42.228Z,71.90
2023-11-29T15:38:15.045Z,78.80
2023-11-29T15:40:50.602Z,80.20
2023-11-29T15:43:24.443Z,83.50
2023-11-29T15:46:00.699Z,83.70
2023-11-29T15:48:57.888Z,83.60
2023-11-29T15:51:39.669Z,71.80
2023-11-29T15:54:32.468Z,73.50
2023-11-29T15:57:16.948Z,77.60
2023-11-29T16:00:12.950Z,104.50
2023-11-29T16:02:48.954Z,90.10
2023-11-29T16:05:41.932Z,70.80
2023-11-29T16:08:15.405Z,84.30
2023-11-29T16:10:47.866Z,85.60
2023-11-29T16:13:20.435Z,85.10
2023-11-29T16:15:53.123Z,86.80
2023-11-29T16:18:27.608Z,87.60
2023-11-29T16:21:00.267Z,92.70
2023-11-29T16:23:35.103Z,88.30
2023-11-29T16:26:07.941Z,88.30
2023-11-29T16:28:41.570Z,79.60
2023-11-29T16:31:13.910Z,79.70
2023-11-29T16:33:46.576Z,81.40
2023-11-29T16:36:20.291Z,74.00
2023-11-29T16:38:54.676Z,71.60
2023-11-29T16:41:29.971Z,73.10
2023-11-29T16:44:02.324Z,69.20
2023-11-29T16:46:35.437Z,66.60
2023-11-29T16:49:08.165Z,65.70
2023-11-29T16:51:43.520Z,66.80
2023-11-29T16:54:15.947Z,69.50
2023-11-29T16:56:48.524Z,81.20
2023-11-29T16:59:20.878Z,71.80
2023-11-29T17:01:53.468Z,78.70
2023-11-29T17:04:27.685Z,99.80
2023-11-29T17:07:01.810Z,82.20
2023-11-29T17:09:34.340Z,93.50
2023-11-29T17:12:09.847Z,91.70
2023-11-29T17:14:42.234Z,90.00
2023-11-29T17:17:22.814Z,83.00
2023-11-29T17:20:00.414Z,79.80
2023-11-29T17:22:32.980Z,83.50
2023-11-29T17:25:05.565Z,105.90
2023-11-29T17:27:38.059Z,88.30
2023-11-29T17:30:15.393Z,86.40
2023-11-29T17:32:47.913Z,89.40
2023-11-29T17:35:22.653Z,100.20
2023-11-29T17:37:56.657Z,99.60
2023-11-29T17:40:29.445Z,102.60
2023-11-29T17:43:02.009Z,105.80
2023-11-29T17:45:34.585Z,104.30
2023-11-29T17:48:07.392Z,101.00
2023-11-29T17:50:41.810Z,106.00
2023-11-29T17:53:14.251Z,111.00
2023-11-29T17:55:50.629Z,102.80
2023-11-29T17:58:24.508Z,101.90
2023-11-29T18:00:58.501Z,101.70
2023-11-29T18:03:34.404Z,102.20
2023-11-29T18:06:07.589Z,107.00
2023-11-29T18:08:40.106Z,95.30
2023-11-29T18:11:14.802Z,87.60
2023-11-29T18:13:48.701Z,100.50
2023-11-29T18:16:21.379Z,101.30
2023-11-29T18:18:58.197Z,96.60
2023-11-29T18:21:33.887Z,93.50
2023-11-29T18:24:11.732Z,91.90
2023-11-29T18:26:47.380Z,88.60
2023-11-29T18:29:20.004Z,92.00
2023-11-29T18:31:56.081Z,88.60
2023-11-29T18:34:49.514Z,89.40
2023-11-29T18:37:31.545Z,88.60
2023-11-29T18:40:06.104Z,87.50
2023-11-29T18:42:52.907Z,93.50
2023-11-29T18:45:25.463Z,92.00
2023-11-29T18:48:01.073Z,93.00
2023-11-29T18:50:42.870Z,97.30
2023-11-29T18:53:21.206Z,98.10
2023-11-29T18:55:53.782Z,90.20
2023-11-29T18:58:36.109Z,89.50
2023-11-29T19:01:12.875Z,91.70
2023-11-29T19:03:45.700Z,90.10
2023-11-29T19:06:38.763Z,84.10
2023-11-29T19:09:12.932Z,91.90
2023-11-29T19:12:06.589Z,92.00
2023-11-29T19:14:43.234Z,99.10
2023-11-29T19:17:36.785Z,133.80
2023-11-29T19:20:29.817Z,149.00
2023-11-29T19:23:11.594Z,143.30
2023-11-29T19:25:55.064Z,174.50
2023-11-29T19:28:30.709Z,201.00
2023-11-29T19:31:23.441Z,246.50
2023-11-29T19:34:16.737Z,239.70
2023-11-29T19:36:52.483Z,222.90
2023-11-29T19:39:28.385Z,212.20
2023-11-29T19:42:09.433Z,209.60
2023-11-29T19:45:02.266Z,181.30
2023-11-29T19:47:41.073Z,184.40
2023-11-29T19:50:34.205Z,187.70
2023-11-29T19:53:12.523Z,191.00
2023-11-29T19:55:45.743Z,192.70
2023-11-29T19:58:38.455Z,179.90
2023-11-29T20:01:20.713Z,164.50
2023-11-29T20:03:54.369Z,125.50
2023-11-29T20:06:34.701Z,89.20
2023-11-29T20:09:14.182Z,94.50
2023-11-29T20:11:47.675Z,111.60
2023-11-29T20:14:25.613Z,119.70
2023-11-29T20:17:03.554Z,125.20
2023-11-29T20:19:38.440Z,119.60
2023-11-29T20:22:33.282Z,111.10
2023-11-29T20:25:09.546Z,113.30
2023-11-29T20:27:43.443Z,107.10
2023-11-29T20:30:21.496Z,89.80
2023-11-29T20:33:06.950Z,69.10
2023-11-29T20:35:54.836Z,68.60
2023-11-29T20:38:31.034Z,56.80
2023-11-29T20:41:11.465Z,51.10
2023-11-29T20:43:47.333Z,50.40
2023-11-29T20:46:19.906Z,47.70
2023-11-29T20:48:52.408Z,46.60
2023-11-29T20:51:26.983Z,48.20
2023-11-29T20:54:02.743Z,48.90
2023-11-29T20:56:36.688Z,60.00
2023-11-29T20:59:16.365Z,103.30
2023-11-29T21:01:50.733Z,77.20
2023-11-29T21:04:34.728Z,92.60
2023-11-29T21:07:10.355Z,63.60
2023-11-29T21:09:43.412Z,49.60
2023-11-29T21:12:18.649Z,43.80
2023-11-29T21:15:13.057Z,41.70
2023-11-29T21:17:51.012Z,42.20
2023-11-29T21:20:23.728Z,41.30
2023-11-29T21:23:03.413Z,43.30
2023-11-29T21:25:48.256Z,43.30
2023-11-29T21:28:20.670Z,42.60
2023-11-29T21:30:53.371Z,40.90
2023-11-29T21:33:27.466Z,41.60
2023-11-29T21:36:00.039Z,53.40
2023-11-29T21:38:35.673Z,42.10
2023-11-29T21:41:31.199Z,36.50
2023-11-29T21:44:03.769Z,37.80
2023-11-29T21:46:56.310Z,36.10
2023-11-29T21:49:39.933Z,36.10
2023-11-29T21:52:32.523Z,35.30
2023-11-29T21:55:14.477Z,37.40
2023-11-29T21:58:09.510Z,38.70
2023-11-29T22:00:44.360Z,38.50
2023-11-29T22:03:17.717Z,36.40
2023-11-29T22:05:50.012Z,36.80
2023-11-29T22:08:22.710Z,36.20
2023-11-29T22:10:59.137Z,36.00
2023-11-29T22:13:31.556Z,36.40
2023-11-29T22:16:03.988Z,41.10
2023-11-29T22:18:39.730Z,50.00
2023-11-29T22:21:24.927Z,74.40
2023-11-29T22:23:58.326Z,52.90
2023-11-29T22:26:38.071Z,44.00
2023-11-29T22:29:16.271Z,48.10
2023-11-29T22:31:48.867Z,48.90
2023-11-29T22:34:21.365Z,38.10
2023-11-29T22:36:55.418Z,33.70
2023-11-29T22:39:28.046Z,31.20
2023-11-29T22:42:06.849Z,33.10
2023-11-29T22:44:39.109Z,35.20
2023-11-29T22:47:11.419Z,34.00
2023-11-29T22:49:44.067Z,35.50
2023-11-29T22:52:16.313Z,35.90
2023-11-29T22:54:53.587Z,36.50
2023-11-29T22:57:26.203Z,37.80
2023-11-29T22:59:59.837Z,48.50
2023-11-29T23:02:32.593Z,59.00
2023-11-29T23:05:09.452Z,40.10
2023-11-29T23:07:42.216Z,34.80
2023-11-29T23:10:15.220Z,33.20
2023-11-29T23:12:47.554Z,32.40
2023-11-29T23:15:42.173Z,32.80
2023-11-29T23:18:17.167Z,34.50
2023-11-29T23:20:52.417Z,31.20
2023-11-29T23:23:46.925Z,29.30
2023-11-29T23:26:19.426Z,27.60
2023-11-29T23:28:51.810Z,26.90
2023-11-29T23:31:24.285Z,27.40
2023-11-29T23:33:58.385Z,26.00
2023-11-29T23:36:31.460Z,26.60
2023-11-29T23:39:15.133Z,26.70
2023-11-29T23:41:47.543Z,39.30
2023-11-29T23:44:34.646Z,28.10
2023-11-29T23:47:10.813Z,25.90
2023-11-29T23:49:53.397Z,26.30
2023-11-29T23:52:37.068Z,25.10
2023-11-29T23:55:22.682Z,26.10
2023-11-29T23:57:55.084Z,26.70
